AirNav   TITAN Aviation Fuels
 
 1417 users online  

MA88 Albert Farms Airport
Worthington, Massachusetts, USA

GOING TO WORTHINGTON?


FAA INFORMATION EFFECTIVE 02 DECEMBER 2021

Location

FAA Identifier: MA88
Lat/Long: 42-23-24.3130N 072-55-51.3520W
42-23.405217N 072-55.855867W
42.3900869,-72.9309311
(estimated)
Elevation: 1425 ft. / 434 m (estimated)
Variation: 14W (1985)
From city: 1 mile SE of WORTHINGTON, MA
Time zone: UTC -5 (UTC -4 during Daylight Saving Time)
Zip code: 01098

Airport Operations

Airport use: Private use. Permission required prior to landing
Activation date: 10/1976
Control tower: no
ARTCC: BOSTON CENTER
FSS: BURLINGTON FLIGHT SERVICE STATION
Attendance: UNATNDD
Wind indicator: no
Segmented circle: no

Airport Communications

WX ASOS at PSF (16 nm W): 135.375 (413-499-3273)
WX ASOS at BAF (17 nm SE): 127.1 (413-568-2267)

Nearby radio navigation aids

VOR radial/distance  VOR name  Freq  Var
CTRr021/6.0CHESTER VOR/DME115.1013W
BAFr339/16.7BARNES VORTAC113.0014W
GDMr270/39.7GARDNER VOR/DME110.6014W

 
NDB name  Hdg/Dist  Freq  Var  ID
PHILMONT090/36.127213WPFH .--. ..-. ....

Airport Services

Runway Information

Runway N/S

Dimensions: 2800 x 50 ft. / 853 x 15 m
Surface: asphalt/gravel
CNTR PORTION OF RY 25'WIDE ASPH 12.5'GRVL ON EACH SIDE OF ASPH FOR TOTAL WIDTH OF 50'
RUNWAY N  RUNWAY S
Traffic pattern: leftleft
Obstructions: trees, 1200 ft. from runwaytrees, 700 ft. from runway

Airport Ownership and Management from official FAA records

Ownership: Privately-owned
Owner: BEN ALBERT
BOX 265 HUNTINGTON RD
WORTHINGTON, MA 01098
Phone 413-238-5521
Manager: BEN ALBERT
BOX 265 HUNTINGTON RD
WORTHINGTON, MA 01098
Phone 413-238-5521

Airport Operational Statistics

Aircraft based on the field: 3
Single engine airplanes: 3
    

Additional Remarks

OWNER DESIRES ARPT TO BE CHARTED.
FOR CD CTC YANKEE APCH AT 860-386-3597

Instrument Procedures

There are no published instrument procedures at MA88.

Some nearby airports with instrument procedures:

7B2 - Northampton Airport (15 nm E)
KPSF - Pittsfield Municipal Airport (16 nm W)
KBAF - Westfield-Barnes Regional Airport (17 nm SE)
KCEF - Westover Air Reserve Base/Metropolitan Airport (21 nm SE)
KAQW - Harriman-and-West Airport (21 nm NW)
 
Loc | Ops | Rwys | IFR | FBO | Links
Com | Nav | Svcs | Stats | Notes
Area around MA88 (Albert Farms Airport)
 
Road maps at: MapQuest Bing Google
 
Aerial photo
No photo
 
Sectional chart

 
Airport distance calculator
Flying to Albert Farms Airport? Find the distance to fly.

From to MA88

Sunrise and sunset
Times for 03-Dec-2021
 Local
(UTC-5)
 Zulu
(UTC)
Morning civil twilight06:3311:33
Sunrise07:0412:04
Sunset16:1921:19
Evening civil twilight16:5021:50

Current date and time
Zulu (UTC)  03-Dec-2021 20:29:22
Local (UTC-5)  03-Dec-2021 15:29:22
 
METAR
KPSF 
16nm W 
031954Z AUTO 30018G25KT 10SM CLR 00/M08 A2988 RMK AO2 PK WND 28029/1931 SLP124 T00001083
KBAF 
16nm SE 
031953Z 32010KT 10SM CLR 04/M08 A2990 RMK AO2 PK WND 28030/1916 WSHFT 1855 SLP129 T00391083
KAQW 
21nm NW 
031952Z AUTO 28013G21KT 10SM BKN047 OVC055 02/M09 A2992 RMK AO2 SLP137 T00221089
KCEF 
22nm SE 
031956Z 30012G21KT 10SM FEW050 04/M09 A2989 RMK AO2A SLP129 T00401091
KBDL 
30nm S 
031951Z 30014G23KT 10SM FEW055 05/M09 A2991 RMK AO2 PK WND 29027/1932 SLP129 T00501089
KORE 
31nm E 
031952Z AUTO 28012KT 10SM CLR 03/M09 A2987 RMK AO2 SLP120 T00281094
TAF
KPSF 
16nm W 
031735Z 0318/0418 30020G30KT P6SM SCT035 FM032300 29009KT P6SM SCT150 FM040900 29006KT P6SM FEW020 SCT090 FM041500 27004KT P6SM OVC035
KBAF 
16nm SE 
031720Z 0318/0418 30012G27KT P6SM FEW200 FM032100 31004KT P6SM SKC FM041200 22003KT P6SM BKN250 FM041700 23006KT P6SM BKN060
NOTAMs
Click for the latest NOTAMs
NOTAMs are issued by the DoD/FAA and will open in a separate window not controlled by AirNav.

 

 
 

Would you like to see your business listed on this page?

 If your business provides an interesting product or service to pilots, flight crews, aircraft, or users of the Albert Farms Airport, you should consider listing it here.  To start the listing process, click on the button below
 
Add a business
 

Other Pages about Albert Farms Airport

Update a link
 
Copyright © AirNav, LLC. All rights reserved. Privacy Policy  Contact